createdAt,value
2022-08-30T00:01:33.851Z,17.50
2022-08-30T00:04:02.855Z,17.50
2022-08-30T00:06:31.027Z,17.50
2022-08-30T00:08:59.877Z,17.50
2022-08-30T00:11:29.094Z,17.60
2022-08-30T00:13:58.242Z,17.50
2022-08-30T00:16:26.828Z,17.40
2022-08-30T00:18:55.201Z,17.40
2022-08-30T00:21:23.781Z,17.40
2022-08-30T00:23:51.309Z,17.40
2022-08-30T00:26:20.001Z,17.40
2022-08-30T00:28:47.538Z,17.40
2022-08-30T00:31:15.703Z,17.40
2022-08-30T00:33:43.642Z,17.60
2022-08-30T00:36:11.094Z,18.00
2022-08-30T00:38:38.511Z,17.50
2022-08-30T00:41:06.012Z,18.10
2022-08-30T00:43:36.659Z,17.20
2022-08-30T00:46:08.368Z,17.20
2022-08-30T00:48:42.899Z,17.20
2022-08-30T00:51:13.252Z,17.40
2022-08-30T00:53:47.732Z,17.20
2022-08-30T00:56:17.993Z,17.90
2022-08-30T00:58:50.583Z,17.10
2022-08-30T01:01:19.269Z,17.20
2022-08-30T01:03:47.264Z,17.10
2022-08-30T01:06:15.812Z,17.00
2022-08-30T01:08:45.321Z,17.00
2022-08-30T01:11:15.359Z,17.20
2022-08-30T01:13:43.965Z,17.00
2022-08-30T01:16:11.627Z,17.00
2022-08-30T01:18:39.619Z,17.10
2022-08-30T01:21:22.213Z,17.10
2022-08-30T01:23:53.685Z,17.10
2022-08-30T01:26:22.276Z,17.10
2022-08-30T01:28:54.916Z,17.10
2022-08-30T01:31:22.855Z,17.20
2022-08-30T01:33:51.193Z,17.10
2022-08-30T01:36:20.125Z,17.10
2022-08-30T01:38:50.896Z,17.20
2022-08-30T01:41:36.889Z,17.00
2022-08-30T01:44:11.593Z,17.00
2022-08-30T01:46:42.990Z,15.60
2022-08-30T01:49:13.297Z,17.70
2022-08-30T01:51:41.484Z,17.30
2022-08-30T01:54:09.909Z,17.40
2022-08-30T01:56:37.727Z,17.00
2022-08-30T01:59:06.084Z,16.80
2022-08-30T02:01:37.163Z,15.30
2022-08-30T02:04:05.571Z,17.00
2022-08-30T02:06:33.190Z,17.50
2022-08-30T02:09:00.829Z,16.90
2022-08-30T02:11:28.324Z,16.90
2022-08-30T02:13:55.943Z,17.00
2022-08-30T02:16:24.620Z,17.00
2022-08-30T02:18:53.473Z,16.90
2022-08-30T02:21:21.618Z,17.00
2022-08-30T02:23:49.389Z,17.00
2022-08-30T02:26:17.952Z,17.00
2022-08-30T02:28:50.139Z,17.10
2022-08-30T02:31:22.222Z,17.10
2022-08-30T02:33:52.319Z,16.90
2022-08-30T02:36:21.725Z,16.90
2022-08-30T02:38:50.483Z,16.80
2022-08-30T02:41:19.087Z,16.90
2022-08-30T02:43:46.956Z,16.70
2022-08-30T02:46:14.801Z,16.90
2022-08-30T02:48:42.707Z,16.80
2022-08-30T02:51:13.083Z,16.80
2022-08-30T02:53:44.045Z,17.80
2022-08-30T02:56:13.364Z,16.70
2022-08-30T02:58:42.585Z,16.60
2022-08-30T03:01:13.099Z,16.60
2022-08-30T03:03:42.343Z,17.20
2022-08-30T03:06:10.574Z,16.70
2022-08-30T03:08:39.643Z,18.30
2022-08-30T03:11:07.345Z,18.40
2022-08-30T03:13:35.182Z,16.80
2022-08-30T03:16:02.749Z,16.50
2022-08-30T03:18:30.298Z,16.50
2022-08-30T03:20:57.745Z,16.80
2022-08-30T03:23:25.302Z,16.40
2022-08-30T03:25:53.606Z,16.40
2022-08-30T03:28:21.246Z,16.50
2022-08-30T03:30:48.833Z,16.40
2022-08-30T03:33:18.120Z,15.20
2022-08-30T03:35:46.148Z,16.30
2022-08-30T03:38:13.599Z,16.50
2022-08-30T03:40:41.432Z,16.30
2022-08-30T03:43:09.608Z,16.30
2022-08-30T03:45:37.296Z,16.40
2022-08-30T03:48:04.890Z,16.40
2022-08-30T03:50:33.106Z,16.30
2022-08-30T03:53:01.493Z,17.10
2022-08-30T03:55:30.664Z,16.20
2022-08-30T03:57:58.519Z,14.80
2022-08-30T04:00:26.528Z,16.30
2022-08-30T04:02:54.159Z,16.10
2022-08-30T04:05:23.185Z,16.50
2022-08-30T04:07:50.817Z,16.30
2022-08-30T04:10:21.239Z,16.80
2022-08-30T04:12:50.209Z,16.10
2022-08-30T04:15:18.837Z,16.30
2022-08-30T04:17:47.440Z,16.30
2022-08-30T04:20:15.487Z,17.20
2022-08-30T04:22:43.309Z,16.10
2022-08-30T04:25:15.357Z,16.20
2022-08-30T04:27:45.747Z,16.50
2022-08-30T04:30:21.026Z,16.00
2022-08-30T04:32:48.761Z,14.60
2022-08-30T04:35:27.665Z,16.00
2022-08-30T04:37:55.430Z,14.20
2022-08-30T04:40:23.269Z,16.10
2022-08-30T04:42:54.387Z,14.40
2022-08-30T04:45:23.308Z,15.80
2022-08-30T04:47:50.992Z,16.20
2022-08-30T04:50:20.952Z,16.00
2022-08-30T04:52:48.734Z,17.40
2022-08-30T04:55:20.388Z,16.30
2022-08-30T04:57:48.445Z,16.00
2022-08-30T05:00:16.859Z,16.00
2022-08-30T05:02:44.635Z,15.90
2022-08-30T07:23:17.423Z,18.80
2022-08-30T07:31:41.367Z,18.90
2022-08-30T07:59:19.484Z,19.40
2022-08-30T09:10:49.353Z,21.80
2022-08-30T09:37:12.179Z,22.20
2022-08-30T09:40:28.361Z,20.80
2022-08-30T09:43:33.188Z,22.40
2022-08-30T09:46:43.353Z,22.30
2022-08-30T09:49:33.434Z,22.50
2022-08-30T10:01:39.780Z,22.70
2022-08-30T10:04:16.829Z,23.00
2022-08-30T10:07:07.728Z,23.00
2022-08-30T10:09:54.463Z,23.20
2022-08-30T10:12:29.999Z,23.40
2022-08-30T10:15:15.196Z,23.40
2022-08-30T10:17:49.399Z,23.60
2022-08-30T10:20:30.506Z,23.90
2022-08-30T10:23:12.876Z,23.50
2022-08-30T10:25:50.779Z,23.50
2022-08-30T10:29:00.155Z,23.90
2022-08-30T10:31:35.148Z,23.80
2022-08-30T10:34:14.836Z,23.80
2022-08-30T10:37:13.678Z,23.80
2022-08-30T10:39:53.463Z,24.00
2022-08-30T10:42:42.590Z,23.80
2022-08-30T10:45:18.935Z,24.00
2022-08-30T10:48:34.958Z,24.10
2022-08-30T10:51:30.700Z,24.00
2022-08-30T10:54:20.150Z,23.80
2022-08-30T10:56:54.331Z,23.80
2022-08-30T11:00:20.114Z,24.00
2022-08-30T11:06:59.984Z,24.20
2022-08-30T11:18:21.599Z,24.40
2022-08-30T11:22:39.242Z,24.70
2022-08-30T11:25:39.901Z,24.70
2022-08-30T11:28:12.191Z,24.60
2022-08-30T11:31:58.155Z,24.60
2022-08-30T11:39:29.571Z,24.90
2022-08-30T11:42:46.376Z,24.80
2022-08-30T11:48:57.657Z,25.10
2022-08-30T11:52:27.505Z,25.10
2022-08-30T11:55:00.299Z,23.70
2022-08-30T11:57:51.671Z,24.50
2022-08-30T12:01:41.862Z,24.80
2022-08-30T12:04:29.408Z,24.80
2022-08-30T12:10:44.033Z,25.00
2022-08-30T12:14:17.235Z,25.00
2022-08-30T12:17:12.811Z,25.10
2022-08-30T12:19:54.323Z,25.10
2022-08-30T12:22:54.420Z,25.10
2022-08-30T12:25:47.594Z,25.60
2022-08-30T12:28:36.579Z,24.80
2022-08-30T12:31:31.156Z,25.50
2022-08-30T12:34:03.809Z,25.30
2022-08-30T12:40:58.093Z,25.20
2022-08-30T12:44:09.230Z,25.20
2022-08-30T12:54:31.211Z,25.40
2022-08-30T12:57:25.333Z,25.50
2022-08-30T12:59:59.806Z,25.20
2022-08-30T13:03:53.084Z,25.40
2022-08-30T13:15:19.917Z,25.50
2022-08-30T13:17:47.922Z,25.40
2022-08-30T13:20:16.173Z,25.50
2022-08-30T13:23:34.597Z,25.60
2022-08-30T13:26:02.463Z,25.70
2022-08-30T13:28:54.465Z,26.10
2022-08-30T13:32:14.204Z,25.90
2022-08-30T13:34:44.517Z,26.00
2022-08-30T13:46:09.210Z,24.50
2022-08-30T13:48:40.799Z,26.10
2022-08-30T13:51:11.923Z,25.80
2022-08-30T13:54:12.249Z,27.00
2022-08-30T13:56:49.361Z,26.00
2022-08-30T13:59:38.643Z,26.10
2022-08-30T14:02:07.932Z,26.40
2022-08-30T14:04:35.954Z,26.40
2022-08-30T14:07:16.642Z,26.30
2022-08-30T14:09:47.745Z,26.40
2022-08-30T14:12:52.274Z,26.20
2022-08-30T14:15:07.424Z,26.10
2022-08-30T14:17:36.215Z,24.90
2022-08-30T14:20:04.260Z,26.10
2022-08-30T14:22:33.975Z,24.70
2022-08-30T14:25:05.654Z,25.90
2022-08-30T14:27:35.994Z,25.90
2022-08-30T14:30:09.492Z,26.00
2022-08-30T14:32:45.107Z,26.90
2022-08-30T14:35:15.744Z,25.90
2022-08-30T14:40:45.782Z,25.30
2022-08-30T14:44:04.487Z,25.60
2022-08-30T14:47:29.821Z,26.30
2022-08-30T14:50:05.006Z,24.90
2022-08-30T14:52:39.237Z,25.40
2022-08-30T14:55:11.691Z,25.30
2022-08-30T14:57:59.768Z,25.20
2022-08-30T15:00:38.708Z,23.60
2022-08-30T15:03:12.783Z,25.20
2022-08-30T15:09:48.550Z,25.40
2022-08-30T15:12:27.909Z,25.20
2022-08-30T15:14:56.774Z,25.50
2022-08-30T15:17:31.023Z,25.20
2022-08-30T15:20:08.565Z,25.10
2022-08-30T15:22:47.095Z,25.60
2022-08-30T15:25:18.456Z,25.10
2022-08-30T15:27:46.093Z,25.20
2022-08-30T15:30:20.381Z,25.30
2022-08-30T15:32:48.073Z,25.20
2022-08-30T15:35:16.276Z,25.20
2022-08-30T15:37:44.041Z,26.20
2022-08-30T15:40:11.937Z,25.30
2022-08-30T15:42:42.940Z,25.20
2022-08-30T15:45:10.818Z,25.30
2022-08-30T15:47:38.718Z,25.10
2022-08-30T15:50:16.467Z,25.10
2022-08-30T15:52:46.867Z,25.20
2022-08-30T15:55:17.055Z,25.10
2022-08-30T15:57:56.781Z,25.20
2022-08-30T16:00:32.506Z,25.20
2022-08-30T16:03:00.180Z,25.00
2022-08-30T16:05:29.396Z,25.00
2022-08-30T16:07:56.988Z,25.20
2022-08-30T16:10:24.821Z,25.10
2022-08-30T16:13:01.653Z,25.20
2022-08-30T16:15:30.825Z,25.10
2022-08-30T16:18:05.513Z,24.90
2022-08-30T16:21:05.108Z,25.10
2022-08-30T16:23:41.322Z,24.80
2022-08-30T16:26:36.096Z,25.40
2022-08-30T16:29:08.916Z,24.70
2022-08-30T16:31:44.547Z,24.70
2022-08-30T16:34:43.972Z,24.00
2022-08-30T16:37:18.475Z,23.70
2022-08-30T16:40:30.894Z,24.70
2022-08-30T16:43:00.676Z,24.40
2022-08-30T16:50:53.887Z,24.20
2022-08-30T16:53:33.851Z,23.20
2022-08-30T17:05:47.556Z,23.80
2022-08-30T17:11:35.209Z,23.90
2022-08-30T17:14:55.019Z,23.70
2022-08-30T17:17:47.586Z,24.10
2022-08-30T17:25:00.460Z,23.70
2022-08-30T17:28:18.347Z,23.50
2022-08-30T17:30:48.622Z,24.90
2022-08-30T17:33:29.604Z,23.50
2022-08-30T17:41:07.466Z,23.20
2022-08-30T17:43:39.612Z,23.30
2022-08-30T17:46:45.808Z,22.40
2022-08-30T17:58:08.869Z,22.80
2022-08-30T18:04:59.140Z,22.70
2022-08-30T18:08:02.672Z,21.30
2022-08-30T18:18:47.499Z,21.10
2022-08-30T18:21:31.258Z,22.60
2022-08-30T18:24:09.686Z,22.10
2022-08-30T18:35:16.267Z,20.80
2022-08-30T18:38:18.821Z,19.70
2022-08-30T18:45:14.994Z,22.50
2022-08-30T18:48:13.616Z,22.50
2022-08-30T18:51:06.930Z,21.80
2022-08-30T18:53:45.226Z,22.70
2022-08-30T19:00:25.889Z,21.60
2022-08-30T19:02:53.655Z,21.20
2022-08-30T19:05:24.472Z,21.10
2022-08-30T19:07:56.629Z,21.10
2022-08-30T19:11:08.273Z,21.10
2022-08-30T19:17:29.653Z,20.80
2022-08-30T19:20:20.985Z,21.20
2022-08-30T19:23:09.324Z,20.60
2022-08-30T19:25:43.889Z,21.10
2022-08-30T19:28:14.734Z,20.80
2022-08-30T19:30:46.440Z,20.90
2022-08-30T19:33:22.333Z,20.80
2022-08-30T19:39:52.565Z,20.70
2022-08-30T19:42:46.085Z,23.00
2022-08-30T19:48:43.237Z,20.80
2022-08-30T19:51:25.088Z,20.60
2022-08-30T19:54:07.799Z,20.60
2022-08-30T19:56:48.169Z,20.40
2022-08-30T19:59:35.692Z,21.20
2022-08-30T20:02:24.481Z,21.00
2022-08-30T20:16:37.633Z,20.40
2022-08-30T20:19:16.190Z,18.60
2022-08-30T20:21:50.189Z,19.10
2022-08-30T20:24:27.954Z,20.40
2022-08-30T20:27:01.083Z,20.20
2022-08-30T20:29:34.484Z,20.00
2022-08-30T20:32:09.659Z,20.30
2022-08-30T20:34:46.009Z,19.90
2022-08-30T20:37:59.270Z,20.10
2022-08-30T20:40:28.876Z,19.90
2022-08-30T20:43:17.033Z,21.50
2022-08-30T20:45:45.673Z,20.30
2022-08-30T20:48:19.382Z,19.90
2022-08-30T20:50:53.688Z,20.10
2022-08-30T20:53:23.730Z,19.90
2022-08-30T20:55:53.920Z,20.10
2022-08-30T21:04:07.045Z,19.60
2022-08-30T22:06:55.615Z,19.10
2022-08-30T22:26:23.892Z,18.80
2022-08-30T22:30:32.716Z,18.70
2022-08-30T22:33:06.317Z,18.90
2022-08-30T23:10:09.653Z,18.30
2022-08-30T23:27:59.639Z,18.30
